Latest Weather Observations for Grafton Airport

IDN60801

Issued at 11:03 am EST Wednesday 21 April 2021 (issued every 10 minutes, with the page automatically refreshed every 10 minutes)

About weather observations | Map of weather stations | Latest weather observations for NSW | Other Formats
Station Details ID: 058161 Name: GRAFTON AIRPORT AWS Lat: -29.76 Lon: 153.03 Height: 25.09 m
Data from the previous 72 hours. | See also: Recent months at Grafton Airport
Date/Time
EST
Temp
°C
App
Temp
°C
Dew
Point
°C
Rel
Hum
%
Delta-T
°C
Wind Press
QNH
hPa
Press
MSL
hPa
Rain since
9am
mm
Dir  Spd
km/h
Gust
km/h
Spd
kts
Gust
kts
21/11:00am 24.1 21.8 7.3 34 8.8 NNW 9 19 5 10 1012.1 1012.0 0.0
21/10:30am 23.0 23.8 12.6 52 5.9 CALM 0 6 0 3 1012.7 1012.6 0.0
21/10:00am 19.2 19.4 13.2 68 3.4 WSW 4 11 2 6 1013.2 1013.1 0.0
21/09:30am 17.8 17.6 12.9 73 2.7 S 6 9 3 5 1013.4 1013.3 0.0
21/09:00am 15.9 15.8 12.1 78 2.1 WSW 4 7 2 4 1013.6 1013.5 0.2
21/08:30am 15.0 15.7 12.3 84 1.5 CALM 0 0 0 0 1013.8 1013.7 0.2
21/08:00am 13.4 14.4 13.2 99 0.1 CALM 0 0 0 0 1013.8 1013.7 0.2
21/07:30am 11.5 12.0 11.5 100 0.0 CALM 0 0 0 0 1013.6 1013.5 0.2
21/07:00am 9.4 9.3 9.4 100 0.0 CALM 0 0 0 0 1013.5 1013.4 0.2
21/06:30am 8.4 8.0 8.4 100 0.0 CALM 0 0 0 0 1013.5 1013.4 0.2
21/06:00am 9.1 7.6 9.1 100 0.0 S 7 11 4 6 1013.2 1013.1 0.2
21/05:30am 8.9 7.3 8.9 100 0.0 SSW 7 11 4 6 1013.3 1013.2 0.2
21/05:00am 9.4 8.9 9.4 100 0.0 SSW 2 7 1 4 1013.1 1013.0 0.2
21/04:30am 8.9 7.9 8.9 100 0.0 SW 4 11 2 6 1012.8 1012.7 0.2
21/04:00am 9.3 9.2 9.3 100 0.0 CALM 0 6 0 3 1012.5 1012.4 0.2
21/03:30am 9.8 9.4 9.8 100 0.0 SSW 2 9 1 5 1012.4 1012.3 0.2
21/03:00am 9.8 8.5 9.8 100 0.0 S 7 11 4 6 1012.5 1012.4 0.2
21/02:40am 9.7 9.7 9.7 100 0.0 CALM 0 6 0 3 1012.6 1012.5 0.2
21/02:30am 9.5 9.0 9.5 100 0.0 SSW 2 9 1 5 1012.6 1012.5 0.2
21/02:13am 9.5 9.4 9.5 100 0.0 CALM 0 0 0 0 1012.8 1012.7 0.2
21/02:00am 10.2 9.2 10.2 100 0.0 S 6 9 3 5 1012.8 1012.7 0.2
21/01:30am 10.1 10.2 10.1 100 0.0 CALM 0 0 0 0 1012.9 1012.8 0.2
21/01:05am 10.7 10.9 10.7 100 0.0 CALM 0 0 0 0 1013.0 1012.9 0.2
21/01:00am 10.9 11.2 10.9 100 0.0 CALM 0 0 0 0 1013.0 1012.9 0.2
21/12:50am 11.1 11.5 11.1 100 0.0 CALM 0 0 0 0 1013.2 1013.1 0.2
21/12:40am 11.3 11.7 11.3 100 0.0 CALM 0 0 0 0 1013.3 1013.2 0.2
21/12:30am 10.9 11.2 10.9 100 0.0 CALM 0 0 0 0 1013.4 1013.3 0.2
21/12:22am 11.0 11.3 11.0 100 0.0 CALM 0 0 0 0 1013.5 1013.4 0.2
21/12:00am 11.6 12.1 11.6 100 0.0 CALM 0 0 0 0 1013.7 1013.6 0.2
 
Date/Time
EST
Temp
°C
App
Temp
°C
Dew
Point
°C
Rel
Hum
%
Delta-T
°C
Wind Press
QNH
hPa
Press
MSL
hPa
Rain since
9am
mm
Dir  Spd
km/h
Gust
km/h
Spd
kts
Gust
kts
20/11:30pm 11.8 12.0 11.8 100 0.0 S 2 7 1 4 1013.9 1013.8 0.2
20/11:00pm 12.1 11.4 12.1 100 0.0 S 7 9 4 5 1013.9 1013.8 0.2
20/10:30pm 12.8 13.7 12.8 100 0.0 CALM 0 0 0 0 1013.9 1013.8 0.2
20/10:15pm 13.4 14.5 13.4 100 0.0 CALM 0 0 0 0 1013.9 1013.8 0.2
20/10:00pm 12.7 13.5 12.5 99 0.1 CALM 0 0 0 0 1014.1 1014.0 0.2
20/09:44pm 13.0 13.9 12.8 99 0.1 CALM 0 0 0 0 1014.3 1014.2 0.2
20/09:30pm 13.4 14.4 13.2 99 0.1 CALM 0 0 0 0 1014.2 1014.1 0.2
20/09:00pm 14.4 15.7 14.2 99 0.1 CALM 0 0 0 0 1014.2 1014.1 0.2
20/08:30pm 14.1 14.1 13.6 97 0.3 SSW 6 9 3 5 1014.1 1014.0 0.2
20/08:00pm 14.6 15.9 14.0 96 0.3 CALM 0 0 0 0 1014.1 1014.0 0.2
20/07:30pm 15.1 15.2 13.8 92 0.7 SSW 6 9 3 5 1013.8 1013.7 0.2
20/07:00pm 15.8 16.8 13.3 85 1.4 CALM 0 0 0 0 1013.7 1013.6 0.2
20/06:30pm 16.7 17.6 13.0 79 2.1 CALM 0 0 0 0 1013.5 1013.4 0.2
20/06:00pm 18.0 19.0 13.1 73 2.8 CALM 0 0 0 0 1013.1 1013.0 0.2
20/05:30pm 20.2 20.9 12.2 60 4.5 CALM 0 0 0 0 1013.0 1012.9 0.2
20/05:00pm 22.0 21.1 11.4 51 5.9 NE 7 9 4 5 1013.0 1012.9 0.2
20/04:30pm 23.9 22.7 11.6 46 6.9 N 9 13 5 7 1012.9 1012.8 0.2
20/04:00pm 24.4 22.5 11.7 45 7.2 N 13 17 7 9 1012.9 1012.8 0.2
20/03:30pm 24.7 23.4 11.3 43 7.6 NNE 9 17 5 9 1013.2 1013.1 0.2
20/03:00pm 25.4 24.2 10.4 39 8.4 NNW 7 13 4 7 1013.3 1013.2 0.2
20/02:30pm 25.0 23.2 9.3 37 8.6 NW 9 13 5 7 1013.6 1013.5 0.2
20/02:00pm 25.1 24.3 9.8 38 8.4 NW 4 11 2 6 1013.7 1013.6 0.2
20/01:30pm 24.2 22.6 8.6 37 8.4 WNW 7 13 4 7 1013.9 1013.8 0.2
20/01:00pm 24.3 22.3 8.7 37 8.4 NNW 9 20 5 11 1014.5 1014.4 0.2
20/12:30pm 23.9 21.1 8.7 38 8.1 NNW 13 19 7 10 1015.0 1014.9 0.2
20/12:00pm 23.4 20.9 8.3 38 8.0 WNW 11 19 6 10 1015.7 1015.6 0.2
20/11:30am 23.3 21.5 10.7 45 7.0 NW 11 17 6 9 1016.0 1015.9 0.2
20/11:00am 22.4 21.3 12.1 52 5.8 N 9 15 5 8 1016.4 1016.3 0.2
20/10:30am 21.7 21.7 15.3 67 3.8 N 9 13 5 7 1016.9 1016.8 0.2
20/10:00am 20.1 20.8 14.5 70 3.3 N 4 9 2 5 1017.2 1017.1 0.2
20/09:30am 17.8 18.9 14.7 82 1.8 SSW 2 9 1 5 1017.7 1017.6 0.0
20/09:00am 16.3 17.7 14.3 88 1.1 CALM 0 6 0 3 1018.2 1018.1 0.0
20/08:30am 15.2 16.9 15.2 100 0.0 CALM 0 6 0 3 1018.4 1018.3 0.0
20/08:24am 14.6 16.1 14.6 100 0.0 CALM 0 6 0 3 1018.5 1018.4 0.0
20/08:23am 14.7 16.2 14.7 100 0.0 CALM 0 0 0 0 1018.5 1018.4 0.0
20/08:00am 12.5 13.3 12.5 100 0.0 CALM 0 0 0 0 1018.3 1018.2 0.0
20/07:52am 12.4 13.2 12.4 100 0.0 CALM 0 0 0 0 1018.3 1018.2 0.0
20/07:37am 12.3 13.0 12.3 100 0.0 CALM 0 0 0 0 1018.1 1018.0 0.0
20/07:30am 11.6 12.1 11.6 100 0.0 CALM 0 0 0 0 1018.0 1017.9 0.0
20/07:16am 10.7 10.9 10.7 100 0.0 CALM 0 0 0 0 1017.9 1017.8 0.0
20/07:00am 10.2 10.3 10.2 100 0.0 CALM 0 0 0 0 1018.0 1017.9 0.0
20/06:30am 9.6 9.5 9.6 100 0.0 CALM 0 0 0 0 1017.8 1017.7 0.0
20/06:00am 9.7 9.7 9.7 100 0.0 CALM 0 0 0 0 1017.5 1017.4 0.0
20/05:30am 10.1 10.2 10.1 100 0.0 CALM 0 0 0 0 1017.3 1017.2 0.0
20/05:00am 9.9 9.9 9.9 100 0.0 CALM 0 0 0 0 1017.1 1017.0 0.0
20/04:30am 10.2 10.3 10.2 100 0.0 CALM 0 0 0 0 1017.0 1016.9 0.0
20/04:03am 10.2 10.3 10.2 100 0.0 CALM 0 0 0 0 1016.7 1016.6 0.0
20/04:00am 10.3 10.4 10.3 100 0.0 CALM 0 0 0 0 1016.7 1016.6 0.0
20/03:38am 10.4 10.6 10.4 100 0.0 CALM 0 0 0 0 1016.8 1016.7 0.0
20/03:30am 10.7 10.9 10.7 100 0.0 CALM 0 0 0 0 1016.6 1016.5 0.0
20/03:00am 11.0 11.3 11.0 100 0.0 CALM 0 0 0 0 1016.7 1016.6 0.0
20/02:30am 11.4 11.8 11.4 100 0.0 CALM 0 0 0 0 1016.8 1016.7 0.0
20/02:00am 11.4 11.8 11.4 100 0.0 CALM 0 0 0 0 1017.1 1017.0 0.0
20/01:30am 11.5 12.0 11.5 100 0.0 CALM 0 0 0 0 1017.3 1017.2 0.0
20/01:00am 11.9 12.5 11.9 100 0.0 CALM 0 0 0 0 1017.5 1017.4 0.0
20/12:57am 11.9 12.5 11.9 100 0.0 CALM 0 0 0 0 1017.5 1017.4 0.0
20/12:30am 12.1 12.8 12.1 100 0.0 CALM 0 0 0 0 1017.8 1017.7 0.0
20/12:00am 12.2 12.9 12.2 100 0.0 CALM 0 0 0 0 1017.8 1017.7 0.0
 
Date/Time
EST
Temp
°C
App
Temp
°C
Dew
Point
°C
Rel
Hum
%
Delta-T
°C
Wind Press
QNH
hPa
Press
MSL
hPa
Rain since
9am
mm
Dir  Spd
km/h
Gust
km/h
Spd
kts
Gust
kts
19/11:59pm 12.3 13.0 12.3 100 0.0 CALM 0 0 0 0 1017.8 1017.7 0.0
19/11:30pm 12.9 13.8 12.9 100 0.0 CALM 0 0 0 0 1017.8 1017.7 0.0
19/11:00pm 13.1 14.1 13.1 100 0.0 CALM 0 0 0 0 1018.0 1017.9 0.0
19/10:30pm 13.0 13.9 13.0 100 0.0 CALM 0 6 0 3 1018.1 1018.0 0.0
19/10:00pm 13.3 14.3 13.3 100 0.0 CALM 0 0 0 0 1018.2 1018.1 0.0
19/09:30pm 13.5 14.6 13.5 100 0.0 CALM 0 0 0 0 1018.2 1018.1 0.0
19/09:00pm 13.9 15.1 13.9 100 0.0 CALM 0 0 0 0 1018.1 1018.0 0.0
19/08:30pm 14.2 14.7 14.0 99 0.1 S 4 9 2 5 1017.9 1017.8 0.0
19/08:00pm 14.6 15.9 14.1 97 0.3 CALM 0 0 0 0 1017.8 1017.7 0.0
19/07:30pm 15.1 16.3 13.8 92 0.7 CALM 0 0 0 0 1017.7 1017.6 0.0
19/07:00pm 15.9 17.0 13.6 86 1.3 CALM 0 6 0 3 1017.3 1017.2 0.0
19/06:30pm 17.2 18.1 12.9 76 2.4 CALM 0 0 0 0 1017.0 1016.9 0.0
19/06:00pm 18.3 18.9 13.2 72 2.9 ESE 2 7 1 4 1016.7 1016.6 0.0
19/05:30pm 19.2 19.4 12.9 67 3.6 E 4 7 2 4 1016.4 1016.3 0.0
19/05:00pm 20.2 19.2 12.4 61 4.4 E 9 13 5 7 1016.1 1016.0 0.0
19/04:30pm 21.6 19.8 12.2 55 5.3 E 13 19 7 10 1015.9 1015.8 0.0
19/04:00pm 22.4 20.9 11.8 51 6.0 E 11 19 6 10 1015.9 1015.8 0.0
19/03:30pm 23.2 21.3 11.9 49 6.4 E 13 20 7 11 1015.8 1015.7 0.0
19/03:00pm 23.7 22.4 11.1 45 7.0 E 9 19 5 10 1015.9 1015.8 0.0
19/02:30pm 24.2 23.1 9.8 40 7.9 NW 6 11 3 6 1016.1 1016.0 0.0
19/02:00pm 24.3 23.2 9.8 40 7.9 W 6 9 3 5 1016.2 1016.1 0.0
19/01:30pm 23.8 22.7 10.8 44 7.2 NNW 7 11 4 6 1016.4 1016.3 0.0
19/01:00pm 23.3 23.4 11.4 47 6.7 SE 2 7 1 4 1016.8 1016.7 0.0
19/12:30pm 22.2 21.5 11.3 50 6.1 W 6 11 3 6 1017.2 1017.1 0.0
19/12:00pm 22.4 21.2 11.5 50 6.1 SSW 9 13 5 7 1017.4 1017.3 0.0
19/11:30am 21.9 21.3 11.6 52 5.8 SW 6 13 3 7 1018.1 1018.0 0.0
19/11:00am 21.8 21.7 12.1 54 5.5 SE 4 11 2 6 1018.4 1018.3 0.0
19/10:30am 20.7 19.6 10.8 53 5.4 SW 7 11 4 6 1018.9 1018.8 0.0
19/10:00am 20.2 19.5 11.4 57 4.8 W 6 11 3 6 1019.2 1019.1 0.0
19/09:30am 18.5 17.7 11.8 65 3.7 SW 7 11 4 6 1019.3 1019.2 0.0
19/09:00am 17.1 16.5 11.8 71 2.9 W 6 11 3 6 1019.4 1019.3 0.2
19/08:30am 15.9 16.3 12.6 81 1.8 W 2 7 1 4 1019.6 1019.5 0.2
19/08:00am 13.8 14.1 12.2 90 0.9 WSW 2 7 1 4 1019.5 1019.4 0.2
19/07:30am 12.3 11.9 12.3 100 0.0 S 6 7 3 4 1019.5 1019.4 0.2
19/07:00am 10.8 11.1 10.8 100 0.0 CALM 0 6 0 3 1019.2 1019.1 0.2
19/06:30am 10.1 9.8 10.1 100 0.0 SSW 2 7 1 4 1018.7 1018.6 0.2
19/06:00am 9.7 9.3 9.7 100 0.0 S 2 6 1 3 1018.7 1018.6 0.2
19/05:30am 9.9 8.6 9.9 100 0.0 S 7 9 4 5 1018.5 1018.4 0.2
19/05:00am 10.2 9.5 10.2 100 0.0 SSW 4 9 2 5 1018.3 1018.2 0.2
19/04:30am 10.3 10.4 10.3 100 0.0 CALM 0 0 0 0 1018.1 1018.0 0.2
19/04:00am 10.4 10.6 10.4 100 0.0 CALM 0 0 0 0 1018.1 1018.0 0.2
19/03:30am 10.6 10.8 10.6 100 0.0 CALM 0 0 0 0 1017.9 1017.8 0.2
19/03:00am 11.0 10.0 11.0 100 0.0 S 7 9 4 5 1017.9 1017.8 0.2
19/02:30am 11.3 11.7 11.3 100 0.0 CALM 0 0 0 0 1018.0 1017.9 0.2
19/02:00am 11.4 10.5 11.4 100 0.0 S 7 11 4 6 1018.1 1018.0 0.2
19/01:30am 11.7 10.9 11.7 100 0.0 S 7 11 4 6 1018.4 1018.3 0.2
19/01:00am 11.7 10.9 11.7 100 0.0 S 7 9 4 5 1018.8 1018.7 0.0
19/12:30am 12.1 11.4 11.9 99 0.1 SSW 7 9 4 5 1018.8 1018.7 0.0
19/12:00am 12.3 11.8 12.1 99 0.1 SSW 6 7 3 4 1018.8 1018.7 0.0
 
Date/Time
EST
Temp
°C
App
Temp
°C
Dew
Point
°C
Rel
Hum
%
Delta-T
°C
Wind Press
QNH
hPa
Press
MSL
hPa
Rain since
9am
mm
Dir  Spd
km/h
Gust
km/h
Spd
kts
Gust
kts
18/11:30pm 12.4 12.3 12.2 99 0.1 SSW 4 9 2 5 1018.9 1018.8 0.0
18/11:00pm 12.1 12.4 12.1 100 0.0 SW 2 7 1 4 1019.0 1018.9 0.0
18/10:30pm 12.3 12.2 12.1 99 0.1 SSW 4 7 2 4 1019.2 1019.1 0.0
18/10:00pm 13.1 13.3 12.9 99 0.1 S 4 7 2 4 1019.3 1019.2 0.0
18/09:30pm 12.8 12.5 12.6 99 0.1 SSW 6 9 3 5 1019.3 1019.2 0.0
18/09:00pm 13.2 13.0 13.0 99 0.1 SSW 6 7 3 4 1019.3 1019.2 0.0
18/08:30pm 13.8 14.6 12.4 91 0.8 CALM 0 0 0 0 1019.2 1019.1 0.0
18/08:00pm 14.3 15.1 12.7 90 0.9 CALM 0 0 0 0 1019.1 1019.0 0.0
18/07:30pm 15.2 15.9 12.3 83 1.6 CALM 0 0 0 0 1018.7 1018.6 0.0
18/07:00pm 15.7 16.4 12.1 79 2.0 CALM 0 0 0 0 1018.5 1018.4 0.0
18/06:30pm 16.5 17.1 11.9 74 2.5 CALM 0 0 0 0 1018.2 1018.1 0.0
18/06:00pm 17.5 16.7 11.8 69 3.1 SSW 7 11 4 6 1017.8 1017.7 0.0
18/05:30pm 18.5 17.0 11.8 65 3.7 SSE 11 17 6 9 1017.4 1017.3 0.0
18/05:00pm 19.5 18.1 12.3 63 4.0 SSE 11 17 6 9 1017.0 1016.9 0.0
18/04:30pm 20.6 18.9 12.3 59 4.7 SSE 13 19 7 10 1016.8 1016.7 0.0
18/04:00pm 20.7 17.6 11.6 56 5.0 SSE 19 26 10 14 1016.8 1016.7 0.0
18/03:30pm 21.6 19.4 12.2 55 5.3 SSE 15 26 8 14 1016.9 1016.8 0.0
18/03:00pm 21.8 19.0 11.5 52 5.7 SSE 17 24 9 13 1016.8 1016.7 0.0
18/02:30pm 22.6 20.1 12.3 52 5.8 SSE 17 26 9 14 1016.9 1016.8 0.0
18/02:00pm 22.3 20.6 12.3 53 5.7 SE 13 22 7 12 1017.1 1017.0 0.0
18/01:30pm 22.9 21.4 13.1 54 5.6 SSW 13 19 7 10 1017.2 1017.1 0.0
18/01:00pm 22.2 19.7 12.2 53 5.6 SSE 17 28 9 15 1017.5 1017.4 0.0
18/12:30pm 21.8 18.5 10.9 50 6.0 SSE 19 28 10 15 1017.8 1017.7 0.0
18/12:00pm 21.0 18.0 10.8 52 5.6 S 17 24 9 13 1018.2 1018.1 0.0
18/11:30am 21.6 19.2 12.5 56 5.2 SSW 17 28 9 15 1018.6 1018.5 0.0

Other formats

Comma delimited format used in spreadsheet applications
http://www.bom.gov.au/fwo/IDN60801/IDN60801.95570.axf

JavaScript Object Notation format (JSON) in row-major order
http://www.bom.gov.au/fwo/IDN60801/IDN60801.95570.json

Data quality

Most of these data are generated automatically and are frequently updated. Quality checks on data are not normally performed. It is possible for incorrect values to appear. Refer to information at About Latest Weather Observations and please check the disclaimer before using these data.